^^
Datos históricos de la estación: Murcia-Puente Tocinos
Diario Informe para Julio 13, 2020 Unidades:  Métrico    Ingés   Ambas
Diario Semanal Mensual Anual
  Máxima: Mínima: Promedio:
Temperatura: 31.5 °C 22.6 °C 26.7 °C
Punto de rocio: 20.6 °C 15.9 °C 18.3 °C
Humedad: 83% 40.8% 62%
Velocidad viento: 18.4km/h 0km/h 9km/h
Racha viento: 35.9km/h - -
Viento- - ESE
Presión: 1017.1 hPa 1013.8 hPa -
Precipitación: 0.2 mm    
 
 
Tabla de datos para Julio 13, 2020
Hora Temperatura Punto de rocio Presión Viento Velocidad viento Racha viento Humedad Intensidad lluvia(por hora) Nubes
00:04 24.2 °C 20.5 °C 1016.6 hPa Este 5.6 km/h 8 km/h 80% 0.0 mm
00:09 24.2 °C 20.6 °C 1017.0 hPa NNE 3.2 km/h 6.4 km/h 80% 0.0 mm
00:14 24.2 °C 20.6 °C 1017.0 hPa NNO 3.1 km/h 8 km/h 80% 0.0 mm
00:19 24.2 °C 20.6 °C 1017.0 hPa NO 2.9 km/h 3.7 km/h 80% 0.0 mm
00:24 24.2 °C 20.6 °C 1017.0 hPa NO 2.3 km/h   80% 0.0 mm
00:29 24.2 °C 20.6 °C 1016.9 hPa Calm     80% 0.0 mm
00:34 24.2 °C 20.6 °C 1016.9 hPa Calm     80% 0.0 mm
00:39 24.2 °C 20.6 °C 1016.9 hPa Calm   6.4 km/h 80% 0.0 mm
00:44 24.2 °C 20.6 °C 1016.9 hPa ONO 0.7 km/h 8 km/h 80% 0.0 mm
00:49 24.2 °C 20.6 °C 1016.9 hPa ONO 3.2 km/h 7.6 km/h 80% 0.0 mm
00:54 24.2 °C 20.6 °C 1017.1 hPa ONO 3.6 km/h 8 km/h 80% 0.0 mm
00:59 24.2 °C 20.6 °C 1017.1 hPa ONO 4.7 km/h 8 km/h 80% 0.0 mm
01:04 24.2 °C 20.6 °C 1017.1 hPa ONO 4.3 km/h 6.4 km/h 80.1% 0.0 mm
01:09 24.1 °C 20.5 °C 1017.1 hPa ONO 3.2 km/h 7.4 km/h 80% 0.0 mm
01:14 24.1 °C 20.6 °C 1017.1 hPa ONO 3.1 km/h 8 km/h 80.9% 0.0 mm
01:19 24.1 °C 20.5 °C 1017.1 hPa ONO 2.9 km/h 6.4 km/h 80.6% 0.0 mm
01:24 24.1 °C 20.5 °C 1017.1 hPa ONO 2.9 km/h 5.6 km/h 80% 0.0 mm
01:29 24.1 °C 20.6 °C 1017.0 hPa ONO 2.9 km/h 5.6 km/h 80.9% 0.0 mm
01:34 24.1 °C 20.5 °C 1017.0 hPa SO 2.9 km/h 8.4 km/h 80% 0.0 mm
01:39 24.1 °C 20.6 °C 1017.0 hPa Sur 2.9 km/h 9.5 km/h 80.6% 0.0 mm
01:44 24 °C 20.5 °C 1016.8 hPa Sur 3.4 km/h 11.1 km/h 81% 0.0 mm
01:49 23.8 °C 20.6 °C 1016.8 hPa Sur 5.8 km/h 11.3 km/h 82% 0.0 mm
01:54 23.7 °C 20.5 °C 1016.9 hPa Sur 6 km/h 11.9 km/h 82% 0.0 mm
01:59 23.6 °C 20.6 °C 1016.9 hPa Sur 6.9 km/h 13 km/h 82.9% 0.0 mm
02:04 23.6 °C 20.5 °C 1016.9 hPa Sur 7.3 km/h 12.9 km/h 83% 0.0 mm
02:09 23.5 °C 20.2 °C 1016.9 hPa Sur 8.4 km/h 11.9 km/h 82.2% 0.0 mm
02:14 23.4 °C 20.2 °C 1016.7 hPa Sur 8.4 km/h 11.9 km/h 82% 0.0 mm
02:19 23.4 °C 20.1 °C 1016.7 hPa Sur 8.4 km/h 13 km/h 81.7% 0.0 mm
02:24 23.3 °C 19.9 °C 1016.7 hPa Sur 8.4 km/h 13 km/h 81% 0.0 mm
02:29 23.3 °C 19.8 °C 1016.5 hPa Sur 8.7 km/h 13 km/h 81% 0.0 mm
02:34 23.3 °C 19.8 °C 1016.5 hPa Sur 8.7 km/h 13 km/h 80.6% 0.0 mm
02:39 23.4 °C 19.8 °C 1016.7 hPa SSO 8.7 km/h 13 km/h 80% 0.0 mm
02:44 23.4 °C 19.8 °C 1016.7 hPa Sur 8.7 km/h 12.9 km/h 80% 0.0 mm
02:49 23.4 °C 19.8 °C 1016.7 hPa Sur 8.7 km/h 11.3 km/h 80% 0.0 mm
02:54 23.4 °C 19.8 °C 1016.7 hPa Sur 8.4 km/h 11.9 km/h 80% 0.0 mm
02:59 23.4 °C 19.8 °C 1016.5 hPa SSO 7.6 km/h 11.3 km/h 80% 0.0 mm
03:04 23.5 °C 19.8 °C 1016.5 hPa SSO 7.3 km/h 11.3 km/h 79.8% 0.0 mm
03:09 23.5 °C 19.7 °C 1016.6 hPa SSO 6.5 km/h 9.7 km/h 79.1% 0.0 mm
03:14 23.5 °C 19.7 °C 1016.6 hPa SSO 6 km/h 10 km/h 79% 0.0 mm
03:19 23.6 °C 19.7 °C 1016.6 hPa SSO 4.7 km/h 12.2 km/h 79% 0.0 mm
03:24 23.6 °C 19.7 °C 1016.6 hPa SO 5 km/h 13 km/h 79% 0.0 mm
03:29 23.6 °C 19.6 °C 1016.3 hPa SSO 6.5 km/h 13 km/h 78.3% 0.0 mm
03:34 23.6 °C 19.6 °C 1016.3 hPa SO 6.6 km/h 12.9 km/h 78.2% 0.0 mm
03:39 23.6 °C 19.5 °C 1016.3 hPa SO 6.9 km/h 11.9 km/h 78% 0.0 mm
03:44 23.5 °C 19.4 °C 1016.1 hPa SO 6.8 km/h 11.9 km/h 78% 0.0 mm
03:49 23.4 °C 19.4 °C 1016.1 hPa OSO 6.5 km/h 11.3 km/h 78% 0.0 mm
03:54 23.4 °C 19.3 °C 1016.1 hPa OSO 6.3 km/h 11.3 km/h 78% 0.0 mm
03:59 23.3 °C 19.3 °C 1015.9 hPa Oeste 5.8 km/h 9.3 km/h 78% 0.0 mm
04:04 23.3 °C 19.4 °C 1015.9 hPa OSO 5.5 km/h 9.7 km/h 78.8% 0.0 mm
04:09 23.2 °C 19.3 °C 1015.9 hPa OSO 4.7 km/h 9.7 km/h 79% 0.0 mm
04:14 23.1 °C 19.3 °C 1015.7 hPa OSO 4.7 km/h 8.4 km/h 79% 0.0 mm
04:19 23 °C 19.3 °C 1015.7 hPa SSO 4.7 km/h 8.4 km/h 79.5% 0.0 mm
04:24 23 °C 19.3 °C 1015.7 hPa SSO 4.7 km/h 9.3 km/h 79.7% 0.0 mm
04:29 23 °C 19.2 °C 1015.5 hPa SO 5 km/h 9.7 km/h 79% 0.0 mm
04:34 23.1 °C 19.2 °C 1015.5 hPa SSO 5 km/h 11.1 km/h 79% 0.2 mm
04:39 23.1 °C 19.1 °C 1015.5 hPa Sur 5.8 km/h 11.1 km/h 78.4% 0.2 mm
04:44 23.1 °C 19.1 °C 1015.5 hPa Sur 6.2 km/h 16.1 km/h 78.4% 0.2 mm
04:49 22.9 °C 18.9 °C 1015.5 hPa Sur 8.4 km/h 16.7 km/h 78.2% 0.2 mm
04:54 22.8 °C 18.8 °C 1015.5 hPa Sur 8.7 km/h 16.1 km/h 78% 0.2 mm
04:59 22.8 °C 18.8 °C 1015.4 hPa Sur 10 km/h 14.5 km/h 78% 0.2 mm
05:04 22.8 °C 18.8 °C 1015.4 hPa SSO 9.3 km/h 14 km/h 78.3% 0.2 mm
05:09 22.8 °C 18.8 °C 1015.4 hPa SSO 6.9 km/h 14.8 km/h 78% 0.2 mm
05:14 22.7 °C 18.5 °C 1015.4 hPa SSO 7.3 km/h 14.8 km/h 77.4% 0.2 mm
05:19 22.7 °C 18.4 °C 1015.4 hPa SSO 8.7 km/h 13 km/h 77% 0.2 mm
05:24 22.8 °C 18.5 °C 1015.4 hPa SSO 8.1 km/h 11.3 km/h 76.8% 0.2 mm
05:29 22.8 °C 18.3 °C 1015.4 hPa SSO 6.5 km/h 11.9 km/h 76% 0.2 mm
05:34 22.8 °C 18.2 °C 1015.4 hPa SSO 6.5 km/h 11.3 km/h 75.3% 0.2 mm
05:39 22.8 °C 18.1 °C 1015.4 hPa SSO 6.5 km/h 11.3 km/h 75% 0.0 mm
05:44 22.8 °C 18.1 °C 1015.4 hPa SSO 6.1 km/h 9.3 km/h 75% 0.0 mm
05:49 22.8 °C 18.2 °C 1015.4 hPa SSO 5 km/h 9.7 km/h 75% 0.0 mm
05:54 22.9 °C 18.2 °C 1015.4 hPa Sur 5.2 km/h 10 km/h 75% 0.0 mm
05:59 22.9 °C 18.2 °C 1015.4 hPa SO 5.8 km/h 9.7 km/h 75% 0.0 mm
06:04 22.8 °C 18.2 °C 1015.4 hPa SSO 5.5 km/h 8.4 km/h 75% 0.0 mm
06:09 22.8 °C 18.1 °C 1015.4 hPa Sur 4.7 km/h 10 km/h 75% 0.0 mm
06:14 22.8 °C 18.1 °C 1015.3 hPa Sur 5.2 km/h 11.1 km/h 75% 0.0 mm
06:19 22.8 °C 18 °C 1015.3 hPa Sur 6.9 km/h 11.3 km/h 74.4% 0.0 mm
06:24 22.8 °C 17.9 °C 1015.3 hPa Sur 6.9 km/h 11.3 km/h 74% 0.0 mm
06:29 22.8 °C 18 °C 1015.3 hPa Sur 6.9 km/h 9.7 km/h 74.2% 0.0 mm
06:34 22.8 °C 18.1 °C 1015.3 hPa SSE 6.5 km/h 9.5 km/h 75% 0.0 mm
06:39 22.7 °C 18.2 °C 1015.3 hPa Sur 5 km/h 10.3 km/h 75.5% 0.0 mm
06:44 22.7 °C 18.2 °C 1015.3 hPa SSO 5.3 km/h 11.3 km/h 75.8% 0.0 mm
06:49 22.7 °C 18 °C 1015.3 hPa SSO 6.5 km/h 9.7 km/h 75% 0.0 mm
06:54 22.7 °C 18 °C 1015.4 hPa SO 6.1 km/h 9.7 km/h 75% 0.0 mm
06:59 22.6 °C 18 °C 1015.4 hPa SSO 5 km/h 9.7 km/h 75% 0.0 mm
07:04 22.6 °C 17.7 °C 1015.4 hPa SSO 4.9 km/h 10 km/h 74.1% 0.0 mm
07:09 22.6 °C 17.8 °C 1015.6 hPa Sur 4.7 km/h 10 km/h 74.2% 0.0 mm
07:14 22.6 °C 17.7 °C 1015.6 hPa Sur 5.4 km/h 11.9 km/h 74.1% 0.0 mm
07:19 22.6 °C 17.7 °C 1015.6 hPa Sur 7.6 km/h 11.3 km/h 74% 0.0 mm
07:24 22.6 °C 17.9 °C 1015.6 hPa SSE 7.4 km/h 12.2 km/h 74.8% 0.0 mm
07:29 22.6 °C 18 °C 1015.6 hPa Sur 6.9 km/h 13 km/h 75% 0.0 mm
07:34 22.7 °C 17.9 °C 1015.6 hPa SSO 6.9 km/h 11.1 km/h 74.5% 0.0 mm
07:39 22.7 °C 17.8 °C 1015.7 hPa SSO 6.9 km/h 11.3 km/h 74% 0.0 mm
07:44 22.7 °C 17.9 °C 1015.7 hPa SSO 6.8 km/h 11.3 km/h 74% 0.0 mm
07:49 22.8 °C 17.8 °C 1015.7 hPa SSO 6.5 km/h 11.3 km/h 73.2% 0.0 mm
07:54 22.9 °C 17.7 °C 1015.9 hPa SSO 6.5 km/h 11.1 km/h 72.9% 0.0 mm
07:59 23 °C 17.7 °C 1015.9 hPa SSO 6.5 km/h 11.3 km/h 72% 0.0 mm
08:04 23.1 °C 17.8 °C 1015.9 hPa Sur 6.8 km/h 13.7 km/h 72% 0.0 mm
08:09 23.2 °C 17.9 °C 1016.0 hPa SSO 7.6 km/h 14.5 km/h 71.8% 0.0 mm
08:14 23.3 °C 17.8 °C 1016.0 hPa SSO 7.8 km/h 14.5 km/h 71% 0.0 mm
08:19 23.5 °C 18 °C 1016.0 hPa SO 8.4 km/h 13 km/h 71.6% 0.0 mm
08:24 23.6 °C 18.4 °C 1016.0 hPa SSO 8.4 km/h 14.8 km/h 72.4% 0.0 mm
08:29 23.6 °C 18.2 °C 1016.0 hPa SSO 8.7 km/h 15.6 km/h 71.8% 0.0 mm
08:34 23.6 °C 18 °C 1016.0 hPa SSO 8.6 km/h 16.1 km/h 70.7% 0.0 mm
08:39 23.7 °C 17.9 °C 1016.1 hPa SSO 8.4 km/h 11.9 km/h 70% 0.0 mm
08:44 23.7 °C 17.9 °C 1016.1 hPa SSO 8.4 km/h 14.8 km/h 70% 0.0 mm
08:49 23.8 °C 18 °C 1016.1 hPa SSO 8.4 km/h 14.5 km/h 69.8% 0.0 mm
08:54 23.9 °C 17.9 °C 1016.4 hPa SSO 8 km/h 13.7 km/h 69% 0.0 mm
08:59 24 °C 18 °C 1016.4 hPa SO 6.9 km/h 14.5 km/h 69% 0.0 mm
09:04 24.2 °C 18 °C 1016.4 hPa SSO 6.8 km/h 11.9 km/h 68.5% 0.0 mm
09:09 24.4 °C 18 °C 1016.4 hPa Sur 6.5 km/h 12.2 km/h 67.5% 0.0 mm
09:14 24.6 °C 18 °C 1016.4 hPa Sur 6.6 km/h 12.9 km/h 66.9% 0.0 mm
09:19 24.7 °C 17.7 °C 1016.4 hPa SSO 6.9 km/h 11.9 km/h 65.2% 0.0 mm
09:24 24.8 °C 17.7 °C 1016.4 hPa Sur 6.8 km/h 11.9 km/h 64.9% 0.0 mm
09:29 24.9 °C 17.7 °C 1016.3 hPa SSO 6.5 km/h 11.3 km/h 64.3% 0.0 mm
09:34 25.1 °C 17.6 °C 1016.3 hPa SO 6.3 km/h 13 km/h 63.1% 0.0 mm
09:39 25.2 °C 17.6 °C 1016.3 hPa OSO 5.8 km/h 12.9 km/h 62.8% 0.0 mm
09:44 25.3 °C 17.6 °C 1016.3 hPa Oeste 5.6 km/h 11.9 km/h 62.2% 0.0 mm
09:49 25.4 °C 17.6 °C 1016.3 hPa Oeste 5 km/h 11.3 km/h 62% 0.0 mm
09:54 25.4 °C 17.7 °C 1016.3 hPa Oeste 5.2 km/h 9.7 km/h 62.4% 0.0 mm
09:59 25.6 °C 17.7 °C 1016.2 hPa Oeste 5.8 km/h 9.7 km/h 61.8% 0.0 mm
10:04 25.8 °C 17.7 °C 1016.2 hPa SSO 5.3 km/h 9.5 km/h 61% 0.0 mm
10:09 26 °C 17.7 °C 1016.3 hPa ONO 3.9 km/h 9.7 km/h 60.5% 0.0 mm
10:14 26.2 °C 17.8 °C 1016.3 hPa NNO 3.9 km/h 9.7 km/h 60% 0.0 mm
10:19 26.6 °C 18.1 °C 1016.3 hPa NE 3.9 km/h 8 km/h 59.6% 0.0 mm
10:24 27 °C 18 °C 1016.3 hPa NE 3.7 km/h 8 km/h 57.7% 0.0 mm
10:29 27.3 °C 17.9 °C 1016.1 hPa NNE 3.2 km/h 8 km/h 56.3% 0.0 mm
10:34 27.5 °C 17.7 °C 1016.1 hPa Oeste 3.2 km/h 8 km/h 55.1% 0.0 mm
10:39 27.6 °C 17.9 °C 1016.2 hPa NNO 3.2 km/h 8 km/h 55.7% 0.0 mm
10:44 27.8 °C 18 °C 1016.2 hPa NNE 3.4 km/h 8 km/h 55.1% 0.0 mm
10:49 28 °C 17.7 °C 1016.2 hPa NNE 3.9 km/h 11.1 km/h 53.9% 0.0 mm
10:54 28.1 °C 17.5 °C 1016.3 hPa North 4.1 km/h 11.3 km/h 52.7% 0.0 mm
10:59 28.2 °C 17.4 °C 1016.3 hPa NE 5 km/h 13 km/h 52.1% 0.0 mm
11:04 28.1 °C 17.5 °C 1016.3 hPa NE 5.6 km/h 14.8 km/h 52.9% 0.0 mm
11:09 28.1 °C 17.6 °C 1016.4 hPa NE 7.6 km/h 14.5 km/h 53% 0.0 mm
11:14 28.1 °C 17.7 °C 1016.4 hPa ENE 7.6 km/h 14.8 km/h 53.1% 0.0 mm
11:19 28.1 °C 17.6 °C 1016.4 hPa Este 7.6 km/h 16.1 km/h 53% 0.0 mm
11:24 28.2 °C 17.7 °C 1016.4 hPa NE 7.8 km/h 16.7 km/h 53.2% 0.0 mm
11:29 28.2 °C 17.7 °C 1016.4 hPa ENE 8.4 km/h 14.8 km/h 53% 0.0 mm
11:34 28.3 °C 17.7 °C 1016.4 hPa NE 8.4 km/h 15.6 km/h 52.9% 0.0 mm
11:39 28.4 °C 17.7 °C 1016.4 hPa NE 8.7 km/h 16.1 km/h 52.5% 0.0 mm
11:44 28.4 °C 17.8 °C 1016.4 hPa ENE 8.7 km/h 17.2 km/h 52.8% 0.0 mm
11:49 28.5 °C 17.9 °C 1016.4 hPa ENE 8.7 km/h 17.7 km/h 52.7% 0.0 mm
11:54 28.7 °C 18 °C 1016.4 hPa NE 8.7 km/h 22.2 km/h 52.2% 0.0 mm
11:59 28.7 °C 17.9 °C 1016.2 hPa NE 8.7 km/h 22.5 km/h 52% 0.0 mm
12:04 28.7 °C 17.8 °C 1016.2 hPa NE 9.3 km/h 22.5 km/h 51.5% 0.0 mm
12:09 28.8 °C 17.8 °C 1016.3 hPa NE 11.1 km/h 24.1 km/h 51.4% 0.0 mm
12:14 28.8 °C 17.5 °C 1016.3 hPa NE 11.4 km/h 24.1 km/h 50.4% 0.0 mm
12:19 28.9 °C 17.5 °C 1016.3 hPa ENE 12.2 km/h 27.8 km/h 50.1% 0.0 mm
12:24 29.2 °C 17.5 °C 1016.3 hPa ENE 12 km/h 27.4 km/h 49.4% 0.0 mm
12:29 29.3 °C 17.3 °C 1016.3 hPa NE 11.1 km/h 19.3 km/h 48.2% 0.0 mm
12:34 29.6 °C 17.2 °C 1016.3 hPa ENE 10.9 km/h 22.2 km/h 47.5% 0.0 mm
12:39 29.6 °C 17 °C 1016.3 hPa NNE 10.3 km/h 27.4 km/h 46.8% 0.0 mm
12:44 29.6 °C 17.2 °C 1016.2 hPa NE 11 km/h 27.8 km/h 47.2% 0.0 mm
12:49 29.8 °C 17.8 °C 1016.2 hPa NE 13 km/h 22.5 km/h 48.6% 0.0 mm
12:54 29.8 °C 17 °C 1016.2 hPa NNE 12.6 km/h 20.4 km/h 46% 0.0 mm
12:59 29.8 °C 17.3 °C 1016.1 hPa North 11.1 km/h 20.9 km/h 47% 0.0 mm
13:04 30 °C 17.8 °C 1016.1 hPa ENE 10.7 km/h 20.1 km/h 48.1% 0.0 mm
13:09 30.1 °C 17.4 °C 1016.2 hPa NNE 9.5 km/h 21.7 km/h 46.6% 0.0 mm
13:14 30.2 °C 17.5 °C 1016.2 hPa ENE 9.6 km/h 20.9 km/h 46.4% 0.0 mm
13:19 30.4 °C 17.3 °C 1016.2 hPa NE 10 km/h 22.2 km/h 45.4% 0.0 mm
13:24 30.6 °C 17.4 °C 1016.2 hPa ENE 10 km/h 22.5 km/h 45.3% 0.0 mm
13:29 30.8 °C 17.6 °C 1015.9 hPa NE 10 km/h 19.3 km/h 45.3% 0.0 mm
13:34 30.8 °C 17.8 °C 1015.9 hPa ENE 9.6 km/h 19.3 km/h 46% 0.0 mm
13:39 30.9 °C 17.9 °C 1016.0 hPa NE 8.4 km/h 20.4 km/h 46% 0.0 mm
13:44 31 °C 18.1 °C 1016.0 hPa ENE 9.5 km/h 27.8 km/h 46% 0.0 mm
13:49 31.2 °C 18.1 °C 1016.0 hPa ENE 13 km/h 27.4 km/h 46% 0.0 mm
13:54 31.4 °C 17.8 °C 1016.0 hPa NE 12.8 km/h 23.7 km/h 44.3% 0.0 mm
13:59 31.3 °C 17.5 °C 1015.8 hPa NE 11.9 km/h 24.1 km/h 43.5% 0.0 mm
14:04 31.3 °C 17.4 °C 1015.8 hPa NE 12 km/h 27 km/h 43.4% 0.0 mm
14:09 31.2 °C 17.2 °C 1015.8 hPa NE 12.2 km/h 27.8 km/h 43.1% 0.0 mm
14:14 31.2 °C 17.1 °C 1015.7 hPa NE 12.6 km/h 25.7 km/h 43% 0.0 mm
14:19 31.4 °C 17 °C 1015.7 hPa NE 14 km/h 27.8 km/h 42% 0.0 mm
14:24 31.5 °C 16.9 °C 1015.7 hPa NE 13.6 km/h 27.4 km/h 41.6% 0.0 mm
14:29 31.3 °C 17.1 °C 1015.7 hPa NE 12.2 km/h 30.6 km/h 42.7% 0.0 mm
14:34 31.2 °C 17 °C 1015.7 hPa NE 12.9 km/h 30.6 km/h 42.7% 0.0 mm
14:39 31 °C 16.9 °C 1015.7 hPa NE 14.8 km/h 25.9 km/h 43% 0.0 mm
14:44 31.1 °C 17 °C 1015.6 hPa ENE 14.8 km/h 26.2 km/h 42.9% 0.0 mm
14:49 31.1 °C 16.9 °C 1015.6 hPa NE 14.8 km/h 25.9 km/h 42.4% 0.0 mm
14:54 31.2 °C 16.6 °C 1015.6 hPa ENE 14.1 km/h 22.5 km/h 41.3% 0.0 mm
14:59 31.3 °C 16.4 °C 1015.6 hPa ENE 12.2 km/h 24.1 km/h 40.8% 0.0 mm
15:04 31.3 °C 16.4 °C 1015.6 hPa NE 12.8 km/h 26.2 km/h 40.9% 0.0 mm
15:09 31.2 °C 16.4 °C 1015.6 hPa NE 14.8 km/h 25.9 km/h 41% 0.0 mm
15:14 31.3 °C 16.5 °C 1015.4 hPa ENE 14.2 km/h 25.7 km/h 41% 0.0 mm
15:19 31.2 °C 16.5 °C 1015.4 hPa NE 12.2 km/h 26.2 km/h 41.1% 0.0 mm
15:24 31.2 °C 16.5 °C 1015.4 hPa NE 12.6 km/h 33.3 km/h 41.5% 0.0 mm
15:29 31.1 °C 16.8 °C 1015.4 hPa ENE 14 km/h 33.8 km/h 42.3% 0.0 mm
15:34 31.1 °C 17 °C 1015.4 hPa NE 13.9 km/h 27.8 km/h 43% 0.0 mm
15:39 31.1 °C 17 °C 1015.4 hPa NE 13.7 km/h 27.4 km/h 43% 0.0 mm
15:44 31.2 °C 17 °C 1015.3 hPa NE 13.4 km/h 25.7 km/h 42.7% 0.0 mm
15:49 31.1 °C 16.8 °C 1015.3 hPa NE 12.2 km/h 28.6 km/h 42.5% 0.0 mm
15:54 30.8 °C 16.8 °C 1015.3 hPa ENE 13.6 km/h 35.9 km/h 43% 0.0 mm
15:59 30.8 °C 16.8 °C 1015.3 hPa ENE 18 km/h 35.4 km/h 43% 0.0 mm
16:04 30.8 °C 16.8 °C 1015.3 hPa NE 17.6 km/h 33.3 km/h 43% 0.0 mm
16:09 30.7 °C 16.7 °C 1015.3 hPa NE 16.4 km/h 33.8 km/h 43% 0.0 mm
16:14 30.7 °C 16.7 °C 1015.1 hPa NE 16.4 km/h 32.8 km/h 43% 0.0 mm
16:19 30.5 °C 16.6 °C 1015.1 hPa NNE 16.4 km/h 35.2 km/h 43.3% 0.0 mm
16:24 30.6 °C 16.8 °C 1015.1 hPa NE 16.4 km/h 35.4 km/h 43.6% 0.0 mm
16:29 30.7 °C 16.9 °C 1014.9 hPa NE 16.4 km/h 32.2 km/h 43.7% 0.0 mm
16:34 30.8 °C 17 °C 1014.9 hPa NE 16.1 km/h 27.8 km/h 43.7% 0.0 mm
16:39 30.7 °C 16.7 °C 1014.9 hPa NE 14.8 km/h 30.6 km/h 43.2% 0.0 mm
16:44 30.5 °C 16.7 °C 1014.9 hPa NNE 15.4 km/h 30.9 km/h 43.5% 0.0 mm
16:49 30.4 °C 16.5 °C 1014.9 hPa NE 17.2 km/h 30.6 km/h 43.3% 0.0 mm
16:54 30.4 °C 16.4 °C 1014.9 hPa NE 17.5 km/h 35.9 km/h 43.1% 0.0 mm
16:59 30.3 °C 16.6 °C 1014.6 hPa ENE 18.4 km/h 35.4 km/h 43.7% 0.0 mm
17:04 30.4 °C 16.7 °C 1014.6 hPa ENE 17.4 km/h 29 km/h 43.9% 0.0 mm
17:09 30.5 °C 16.5 °C 1014.6 hPa NE 14.8 km/h 34.3 km/h 43% 0.0 mm
17:14 30.4 °C 16.4 °C 1014.5 hPa NE 15.2 km/h 33.8 km/h 43% 0.0 mm
17:19 30.4 °C 16.4 °C 1014.5 hPa NE 16.4 km/h 34.6 km/h 43% 0.0 mm
17:24 30.3 °C 16.2 °C 1014.5 hPa NNE 16.8 km/h 35.4 km/h 42.6% 0.0 mm
17:29 30.3 °C 16.6 °C 1014.4 hPa NE 18 km/h 35.4 km/h 43.8% 0.0 mm
17:34 30.6 °C 16.7 °C 1014.4 hPa NNE 17.2 km/h 27.4 km/h 43.2% 0.0 mm
17:39 30.6 °C 16.5 °C 1014.4 hPa NNE 14 km/h 28.2 km/h 42.8% 0.0 mm
17:44 30.5 °C 15.9 °C 1014.2 hPa NNE 14.6 km/h 29.8 km/h 41.3% 0.0 mm
17:49 30.4 °C 16.3 °C 1014.2 hPa NE 16.4 km/h 30.6 km/h 42.8% 0.0 mm
17:54 30.4 °C 16.3 °C 1014.2 hPa NE 16.2 km/h 29.8 km/h 42.6% 0.0 mm
17:59 30.4 °C 16.7 °C 1014.1 hPa NNE 15.6 km/h 33.3 km/h 43.8% 0.0 mm
18:04 30.3 °C 16.7 °C 1014.1 hPa NE 15.8 km/h 33.8 km/h 44% 0.0 mm
18:09 30.3 °C 16.7 °C 1014.1 hPa NE 16.4 km/h 29.8 km/h 44.2% 0.0 mm
18:14 30.4 °C 16.5 °C 1014.0 hPa ENE 16.1 km/h 29.8 km/h 43.4% 0.0 mm
18:19 30.3 °C 16.6 °C 1014.0 hPa NE 14.8 km/h 30.6 km/h 43.7% 0.0 mm
18:24 30.3 °C 16.9 °C 1014.0 hPa NE 14.6 km/h 27 km/h 44.6% 0.0 mm
18:29 30.4 °C 17 °C 1014.0 hPa NE 14 km/h 30.9 km/h 44.7% 0.0 mm
18:34 30.3 °C 17 °C 1014.0 hPa NNE 14.8 km/h 32.2 km/h 45% 0.0 mm
18:39 30.2 °C 17.1 °C 1014.1 hPa NE 17.2 km/h 32.2 km/h 45.4% 0.0 mm
18:44 30.3 °C 17.3 °C 1014.1 hPa NE 16.6 km/h 27.4 km/h 45.8% 0.0 mm
18:49 30.3 °C 17.1 °C 1014.1 hPa NE 14.8 km/h 25.7 km/h 45.2% 0.0 mm
18:54 30.3 °C 17.2 °C 1014.1 hPa NNE 14.3 km/h 25.9 km/h 45.7% 0.0 mm
18:59 30.2 °C 17.3 °C 1013.9 hPa NE 13 km/h 25.9 km/h 46% 0.0 mm
19:04 30.1 °C 17.4 °C 1013.9 hPa NE 13.5 km/h 25.7 km/h 46.5% 0.0 mm
19:09 29.9 °C 17.3 °C 1013.9 hPa NE 14.8 km/h 24.1 km/h 46.5% 0.0 mm
19:14 29.9 °C 17.4 °C 1013.9 hPa NNE 14.1 km/h 22.5 km/h 47% 0.0 mm
19:19 29.8 °C 17.5 °C 1013.9 hPa NE 12.2 km/h 26.2 km/h 47.6% 0.0 mm
19:24 29.7 °C 17.5 °C 1013.9 hPa NE 12.6 km/h 25.7 km/h 48% 0.0 mm
19:29 29.7 °C 17.5 °C 1013.8 hPa NE 14 km/h 25.1 km/h 47.9% 0.0 mm
19:34 29.6 °C 17.6 °C 1013.8 hPa NE 13.6 km/h 25.9 km/h 48.5% 0.0 mm
19:39 29.6 °C 17.8 °C 1013.9 hPa NE 12.2 km/h 22.5 km/h 49% 0.0 mm
19:44 29.6 °C 17.8 °C 1013.9 hPa NE 12.2 km/h 24.1 km/h 49% 0.0 mm
19:49 29.4 °C 17.9 °C 1013.9 hPa NE 12.2 km/h 25.9 km/h 49.8% 0.0 mm
19:54 29.3 °C 17.8 °C 1014.0 hPa NNE 13 km/h 28.2 km/h 50.2% 0.0 mm
19:59 29 °C 18 °C 1014.0 hPa NE 15.6 km/h 27.4 km/h 51.3% 0.0 mm
20:04 29 °C 18.3 °C 1014.0 hPa NE 15.2 km/h 24.1 km/h 52.6% 0.0 mm
20:09 28.9 °C 18.4 °C 1014.2 hPa NE 14 km/h 24.5 km/h 53% 0.0 mm
20:14 28.8 °C 18.5 °C 1014.2 hPa NE 14 km/h 25.9 km/h 53.9% 0.0 mm
20:19 28.7 °C 18.4 °C 1014.2 hPa NE 14 km/h 27.8 km/h 54% 0.0 mm
20:24 28.6 °C 18.7 °C 1014.4 hPa NE 13.8 km/h 27.4 km/h 55.2% 0.0 mm
20:29 28.3 °C 18.8 °C 1014.4 hPa NE 13 km/h 22.2 km/h 56.6% 0.0 mm
20:34 28.3 °C 19 °C 1014.4 hPa NE 12.8 km/h 24.1 km/h 57% 0.0 mm
20:39 28.2 °C 18.8 °C 1014.5 hPa NE 11.9 km/h 22.2 km/h 57% 0.0 mm
20:44 28 °C 18.7 °C 1014.5 hPa NE 11.9 km/h 22.5 km/h 56.9% 0.0 mm
20:49 27.9 °C 18.6 °C 1014.5 hPa NE 11.9 km/h 20.9 km/h 57% 0.0 mm
20:54 27.8 °C 18.7 °C 1014.7 hPa NE 11.5 km/h 19.3 km/h 57.3% 0.0 mm
20:59 27.8 °C 18.9 °C 1014.7 hPa NE 10.3 km/h 15.6 km/h 58.3% 0.0 mm
21:04 27.7 °C 19.1 °C 1014.7 hPa NE 10 km/h 16.1 km/h 59.4% 0.0 mm
21:09 27.7 °C 19.2 °C 1014.8 hPa NE 8.7 km/h 14.5 km/h 60% 0.0 mm
21:14 27.5 °C 19.1 °C 1014.8 hPa NE 8.4 km/h 13 km/h 60% 0.0 mm
21:19 27.3 °C 18.7 °C 1014.8 hPa NE 7.6 km/h 20.4 km/h 59.3% 0.0 mm
21:24 27.2 °C 18.5 °C 1014.8 hPa NE 8 km/h 20.9 km/h 59% 0.0 mm
21:29 27.1 °C 18.6 °C 1014.8 hPa NE 9.5 km/h 19.3 km/h 59.8% 0.0 mm
21:34 26.9 °C 18.7 °C 1014.8 hPa NE 9 km/h 14.5 km/h 60.6% 0.0 mm
21:39 26.9 °C 18.9 °C 1014.8 hPa NE 7.6 km/h 14.5 km/h 61.7% 0.0 mm
21:44 26.8 °C 19 °C 1014.8 hPa ENE 7.3 km/h 13.7 km/h 62.5% 0.0 mm
21:49 26.7 °C 19.2 °C 1014.8 hPa ENE 6.5 km/h 14.5 km/h 63.4% 0.0 mm
21:54 26.6 °C 19.2 °C 1015.0 hPa NE 6.6 km/h 12.9 km/h 64% 0.0 mm
21:59 26.5 °C 19.4 °C 1015.0 hPa NE 6.9 km/h 10 km/h 65% 0.0 mm
22:04 26.4 °C 19.5 °C 1015.0 hPa NE 6.8 km/h 13 km/h 65.6% 0.0 mm
22:09 26.3 °C 19.6 °C 1015.1 hPa NNE 6.5 km/h 12.9 km/h 66.6% 0.0 mm
22:14 26.3 °C 19.8 °C 1015.1 hPa NNE 6.5 km/h 11.1 km/h 67.5% 0.0 mm
22:19 26.2 °C 19.9 °C 1015.1 hPa NE 6.5 km/h 13.7 km/h 68.2% 0.0 mm
22:24 26.1 °C 19.9 °C 1015.6 hPa NNE 6.7 km/h 14.5 km/h 69% 0.0 mm
22:29 26 °C 19.9 °C 1015.6 hPa NE 7.6 km/h 13 km/h 69% 0.0 mm
22:34 25.9 °C 19.8 °C 1015.6 hPa NE 7.4 km/h 12.9 km/h 69% 0.0 mm
22:39 25.9 °C 19.9 °C 1015.8 hPa NE 6.9 km/h 11.3 km/h 69.6% 0.0 mm
22:44 25.8 °C 19.9 °C 1015.8 hPa NE 6.8 km/h 11.3 km/h 70% 0.0 mm
22:49 25.8 °C 19.9 °C 1015.8 hPa NE 6.5 km/h 11.3 km/h 70% 0.0 mm
22:54 25.7 °C 19.9 °C 1015.9 hPa NE 6.4 km/h 11.3 km/h 70.2% 0.0 mm
22:59 25.7 °C 20.1 °C 1015.9 hPa NNE 5.8 km/h 11.3 km/h 71% 0.0 mm
23:04 25.7 °C 20 °C 1015.9 hPa NNE 6 km/h 13 km/h 71% 0.0 mm
23:09 25.6 °C 19.9 °C 1015.9 hPa NE 6.4 km/h 10 km/h 71% 0.0 mm
23:14 25.6 °C 19.9 °C 1015.9 hPa NE 6.4 km/h 10 km/h 71% 0.0 mm
23:23 25.4 °C 20 °C 1016.1 hPa NE 6.4 km/h 9.3 km/h 72% 0.0 mm
23:29 25.4 °C 20 °C 1016.1 hPa NNE 5.7 km/h 9.7 km/h 72% 0.0 mm
23:33 25.4 °C 20 °C 1016.1 hPa NNE 5.8 km/h 8 km/h 72% 0.0 mm
23:38 25.4 °C 20 °C 1016.2 hPa NNE 5 km/h 7.4 km/h 72% 0.0 mm
23:44 25.4 °C 20 °C 1016.2 hPa NNE 4.9 km/h 8 km/h 72% 0.0 mm
23:49 25.3 °C 19.9 °C 1016.2 hPa NE 4.7 km/h 10 km/h 72% 0.0 mm
23:54 25.3 °C 19.9 °C 1016.3 hPa NNE 4.9 km/h 9.3 km/h 72% 0.0 mm
23:59 25.3 °C 19.9 °C 1016.3 hPa NE 5.8 km/h 9.3 km/h 72% 0.0 mm
Murcia-Puente Tocinos, España
Compliments of Weather Underground - 3 mb

La estación de MeteoMurcia.com, publica sus datos en los siguientes proyectos:

Weather Underground PWS IMURCIAP2 Meteoclimatic www.awekas.at

W3Counter
Web Analytics